Terminal Aerodrome Forecast
Issued by NWS Des Moines, IA

Home | Current Version | Previous Version | Text Only | Print | Product List | Glossary On
Versions: 1 2 3 4 5 6 7 8 9 10 11 12 13 14 15 16 17 18 19 20 21 22 23 24 25 26
000
FTUS43 KDMX 280156 AAA
TAFDSM
TAF AMD
KDSM 280156Z 2802/2824 VRB05KT P6SM SCT090 BKN120
     FM280300 16004KT P6SM SHRA VCTS SCT070 BKN090CB
     FM280900 17005KT 4SM SHRA BR VCTS OVC050CB
     FM281500 20008KT P6SM SCT050 BKN100=

USA.gov is the U.S. government's official web portal to all federal, state and local government web resources and services.